sensor_id;sensor_type;location;lat;lon;timestamp;P1;durP1;ratioP1;P2;durP2;ratioP2
75696;SDS011;64312;44.738;20.612;2023-02-08T00:02:13;22.40;;;10.30;;
75696;SDS011;64312;44.738;20.612;2023-02-08T00:04:39;25.75;;;11.15;;
75696;SDS011;64312;44.738;20.612;2023-02-08T00:07:05;23.13;;;10.60;;
75696;SDS011;64312;44.738;20.612;2023-02-08T00:09:30;23.08;;;12.13;;
75696;SDS011;64312;44.738;20.612;2023-02-08T00:11:56;25.90;;;11.90;;
75696;SDS011;64312;44.738;20.612;2023-02-08T00:14:21;27.85;;;13.15;;
75696;SDS011;64312;44.738;20.612;2023-02-08T00:16:47;30.48;;;12.30;;
75696;SDS011;64312;44.738;20.612;2023-02-08T00:19:13;26.95;;;11.52;;
75696;SDS011;64312;44.738;20.612;2023-02-08T00:21:39;24.83;;;11.57;;
75696;SDS011;64312;44.738;20.612;2023-02-08T00:24:05;24.65;;;12.05;;
75696;SDS011;64312;44.738;20.612;2023-02-08T00:26:31;25.02;;;12.50;;
75696;SDS011;64312;44.738;20.612;2023-02-08T00:28:57;21.05;;;10.45;;
75696;SDS011;64312;44.738;20.612;2023-02-08T00:31:22;20.70;;;11.82;;
75696;SDS011;64312;44.738;20.612;2023-02-08T00:33:48;27.83;;;12.48;;
75696;SDS011;64312;44.738;20.612;2023-02-08T00:36:14;23.00;;;10.77;;
75696;SDS011;64312;44.738;20.612;2023-02-08T00:38:40;23.15;;;11.55;;
75696;SDS011;64312;44.738;20.612;2023-02-08T00:41:07;27.83;;;11.57;;
75696;SDS011;64312;44.738;20.612;2023-02-08T00:43:32;20.55;;;10.40;;
75696;SDS011;64312;44.738;20.612;2023-02-08T00:45:59;20.92;;;9.13;;
75696;SDS011;64312;44.738;20.612;2023-02-08T00:48:26;23.38;;;10.10;;
75696;SDS011;64312;44.738;20.612;2023-02-08T00:51:26;24.15;;;11.02;;
75696;SDS011;64312;44.738;20.612;2023-02-08T00:53:48;18.75;;;10.82;;
75696;SDS011;64312;44.738;20.612;2023-02-08T00:56:13;24.15;;;10.55;;
75696;SDS011;64312;44.738;20.612;2023-02-08T00:58:40;21.30;;;10.18;;
75696;SDS011;64312;44.738;20.612;2023-02-08T01:01:07;16.25;;;9.15;;
75696;SDS011;64312;44.738;20.612;2023-02-08T01:03:34;23.23;;;9.93;;
75696;SDS011;64312;44.738;20.612;2023-02-08T01:06:01;19.73;;;11.07;;
75696;SDS011;64312;44.738;20.612;2023-02-08T01:08:30;23.08;;;9.73;;
75696;SDS011;64312;44.738;20.612;2023-02-08T01:11:08;21.70;;;10.23;;
75696;SDS011;64312;44.738;20.612;2023-02-08T01:13:36;18.95;;;10.43;;
75696;SDS011;64312;44.738;20.612;2023-02-08T01:16:36;18.20;;;9.35;;
75696;SDS011;64312;44.738;20.612;2023-02-08T01:18:58;17.75;;;9.30;;
75696;SDS011;64312;44.738;20.612;2023-02-08T01:21:26;21.50;;;9.38;;
75696;SDS011;64312;44.738;20.612;2023-02-08T01:23:54;21.83;;;9.70;;
75696;SDS011;64312;44.738;20.612;2023-02-08T01:26:20;21.65;;;9.73;;
75696;SDS011;64312;44.738;20.612;2023-02-08T01:28:48;20.92;;;10.15;;
75696;SDS011;64312;44.738;20.612;2023-02-08T01:31:16;22.33;;;10.73;;
75696;SDS011;64312;44.738;20.612;2023-02-08T01:33:50;26.20;;;10.85;;
75696;SDS011;64312;44.738;20.612;2023-02-08T01:36:16;24.45;;;9.48;;
75696;SDS011;64312;44.738;20.612;2023-02-08T01:38:42;21.45;;;11.02;;
75696;SDS011;64312;44.738;20.612;2023-02-08T01:41:28;23.98;;;12.48;;
75696;SDS011;64312;44.738;20.612;2023-02-08T01:46:41;23.58;;;10.88;;
75696;SDS011;64312;44.738;20.612;2023-02-08T01:51:36;22.73;;;10.40;;
75696;SDS011;64312;44.738;20.612;2023-02-08T01:54:05;23.05;;;9.27;;
75696;SDS011;64312;44.738;20.612;2023-02-08T01:56:34;20.27;;;9.75;;
75696;SDS011;64312;44.738;20.612;2023-02-08T01:59:04;19.40;;;9.55;;
75696;SDS011;64312;44.738;20.612;2023-02-08T02:01:33;19.52;;;9.82;;
75696;SDS011;64312;44.738;20.612;2023-02-08T02:04:01;22.27;;;10.25;;
75696;SDS011;64312;44.738;20.612;2023-02-08T02:06:29;19.65;;;9.18;;
75696;SDS011;64312;44.738;20.612;2023-02-08T02:09:11;21.17;;;9.60;;
75696;SDS011;64312;44.738;20.612;2023-02-08T02:11:51;23.60;;;9.30;;
75696;SDS011;64312;44.738;20.612;2023-02-08T02:14:18;14.30;;;8.45;;
75696;SDS011;64312;44.738;20.612;2023-02-08T02:16:45;19.17;;;9.00;;
75696;SDS011;64312;44.738;20.612;2023-02-08T02:19:19;15.98;;;8.57;;
75696;SDS011;64312;44.738;20.612;2023-02-08T02:21:54;20.17;;;10.00;;
75696;SDS011;64312;44.738;20.612;2023-02-08T02:41:10;29.70;;;11.20;;
75696;SDS011;64312;44.738;20.612;2023-02-08T02:44:17;22.08;;;10.32;;
75696;SDS011;64312;44.738;20.612;2023-02-08T02:46:51;24.45;;;10.43;;
75696;SDS011;64312;44.738;20.612;2023-02-08T02:49:30;17.95;;;8.82;;
75696;SDS011;64312;44.738;20.612;2023-02-08T02:57:21;20.00;;;10.13;;
75696;SDS011;64312;44.738;20.612;2023-02-08T02:59:51;16.83;;;8.90;;
75696;SDS011;64312;44.738;20.612;2023-02-08T03:02:17;27.75;;;10.77;;
75696;SDS011;64312;44.738;20.612;2023-02-08T03:04:46;16.35;;;9.63;;
75696;SDS011;64312;44.738;20.612;2023-02-08T03:09:57;20.02;;;8.38;;
75696;SDS011;64312;44.738;20.612;2023-02-08T03:29:25;21.83;;;10.15;;
75696;SDS011;64312;44.738;20.612;2023-02-08T03:32:08;18.35;;;10.30;;
75696;SDS011;64312;44.738;20.612;2023-02-08T03:37:49;21.73;;;10.57;;
75696;SDS011;64312;44.738;20.612;2023-02-08T03:40:27;19.30;;;9.95;;
75696;SDS011;64312;44.738;20.612;2023-02-08T03:42:57;24.63;;;10.30;;
75696;SDS011;64312;44.738;20.612;2023-02-08T03:45:28;20.33;;;8.30;;
75696;SDS011;64312;44.738;20.612;2023-02-08T03:48:01;16.00;;;8.60;;
75696;SDS011;64312;44.738;20.612;2023-02-08T03:52:58;15.27;;;7.72;;
75696;SDS011;64312;44.738;20.612;2023-02-08T03:55:26;19.58;;;9.35;;
75696;SDS011;64312;44.738;20.612;2023-02-08T03:57:56;24.17;;;10.10;;
75696;SDS011;64312;44.738;20.612;2023-02-08T04:00:29;24.63;;;11.50;;
75696;SDS011;64312;44.738;20.612;2023-02-08T04:03:07;21.80;;;9.98;;
75696;SDS011;64312;44.738;20.612;2023-02-08T04:05:38;23.08;;;10.32;;
75696;SDS011;64312;44.738;20.612;2023-02-08T04:08:04;17.17;;;9.38;;
75696;SDS011;64312;44.738;20.612;2023-02-08T04:10:30;16.80;;;9.60;;
75696;SDS011;64312;44.738;20.612;2023-02-08T04:12:56;17.88;;;9.18;;
75696;SDS011;64312;44.738;20.612;2023-02-08T04:15:22;22.02;;;9.93;;
75696;SDS011;64312;44.738;20.612;2023-02-08T04:17:47;19.80;;;9.32;;
75696;SDS011;64312;44.738;20.612;2023-02-08T04:20:13;22.52;;;11.43;;
75696;SDS011;64312;44.738;20.612;2023-02-08T04:22:38;30.60;;;14.23;;
75696;SDS011;64312;44.738;20.612;2023-02-08T04:25:05;29.55;;;13.30;;
75696;SDS011;64312;44.738;20.612;2023-02-08T04:27:30;19.77;;;10.15;;
75696;SDS011;64312;44.738;20.612;2023-02-08T04:29:56;18.48;;;9.93;;
75696;SDS011;64312;44.738;20.612;2023-02-08T04:32:22;16.90;;;8.60;;
75696;SDS011;64312;44.738;20.612;2023-02-08T04:34:47;21.75;;;9.27;;
75696;SDS011;64312;44.738;20.612;2023-02-08T04:37:13;20.67;;;11.15;;
75696;SDS011;64312;44.738;20.612;2023-02-08T04:39:39;19.20;;;9.23;;
75696;SDS011;64312;44.738;20.612;2023-02-08T04:42:04;23.42;;;9.65;;
75696;SDS011;64312;44.738;20.612;2023-02-08T04:44:30;20.88;;;9.15;;
75696;SDS011;64312;44.738;20.612;2023-02-08T04:46:57;22.27;;;10.98;;
75696;SDS011;64312;44.738;20.612;2023-02-08T04:49:23;19.70;;;9.52;;
75696;SDS011;64312;44.738;20.612;2023-02-08T04:51:49;13.18;;;7.30;;
75696;SDS011;64312;44.738;20.612;2023-02-08T04:54:15;20.35;;;9.73;;
75696;SDS011;64312;44.738;20.612;2023-02-08T04:56:40;21.38;;;9.05;;
75696;SDS011;64312;44.738;20.612;2023-02-08T04:59:06;24.27;;;9.80;;
75696;SDS011;64312;44.738;20.612;2023-02-08T05:01:32;19.48;;;9.52;;
75696;SDS011;64312;44.738;20.612;2023-02-08T05:03:58;18.80;;;8.70;;
75696;SDS011;64312;44.738;20.612;2023-02-08T05:06:23;24.13;;;11.88;;
75696;SDS011;64312;44.738;20.612;2023-02-08T05:08:49;21.17;;;11.35;;
75696;SDS011;64312;44.738;20.612;2023-02-08T05:11:18;24.40;;;13.27;;
75696;SDS011;64312;44.738;20.612;2023-02-08T05:13:48;23.65;;;12.60;;
75696;SDS011;64312;44.738;20.612;2023-02-08T05:16:15;30.50;;;14.95;;
75696;SDS011;64312;44.738;20.612;2023-02-08T05:18:41;28.50;;;14.00;;
75696;SDS011;64312;44.738;20.612;2023-02-08T05:21:07;24.92;;;10.73;;
75696;SDS011;64312;44.738;20.612;2023-02-08T05:23:33;19.90;;;11.60;;
75696;SDS011;64312;44.738;20.612;2023-02-08T05:25:59;19.95;;;10.13;;
75696;SDS011;64312;44.738;20.612;2023-02-08T05:28:24;20.95;;;9.80;;
75696;SDS011;64312;44.738;20.612;2023-02-08T05:30:50;17.98;;;9.18;;
75696;SDS011;64312;44.738;20.612;2023-02-08T05:33:16;23.70;;;11.15;;
75696;SDS011;64312;44.738;20.612;2023-02-08T05:35:45;29.50;;;11.65;;
75696;SDS011;64312;44.738;20.612;2023-02-08T05:38:11;31.08;;;12.70;;
75696;SDS011;64312;44.738;20.612;2023-02-08T05:40:36;25.48;;;10.98;;
75696;SDS011;64312;44.738;20.612;2023-02-08T05:43:02;19.67;;;11.40;;
75696;SDS011;64312;44.738;20.612;2023-02-08T05:45:28;21.42;;;11.30;;
75696;SDS011;64312;44.738;20.612;2023-02-08T05:47:54;20.85;;;9.80;;
75696;SDS011;64312;44.738;20.612;2023-02-08T05:50:19;19.50;;;9.40;;
75696;SDS011;64312;44.738;20.612;2023-02-08T05:52:49;17.95;;;10.45;;
75696;SDS011;64312;44.738;20.612;2023-02-08T05:55:14;20.08;;;9.65;;
75696;SDS011;64312;44.738;20.612;2023-02-08T05:57:40;18.60;;;9.98;;
75696;SDS011;64312;44.738;20.612;2023-02-08T06:00:06;17.23;;;8.57;;
75696;SDS011;64312;44.738;20.612;2023-02-08T06:02:41;16.30;;;8.60;;
75696;SDS011;64312;44.738;20.612;2023-02-08T06:05:06;19.52;;;8.38;;
75696;SDS011;64312;44.738;20.612;2023-02-08T06:07:32;19.58;;;9.43;;
75696;SDS011;64312;44.738;20.612;2023-02-08T06:09:58;18.92;;;9.82;;
75696;SDS011;64312;44.738;20.612;2023-02-08T06:12:23;20.75;;;9.88;;
75696;SDS011;64312;44.738;20.612;2023-02-08T06:14:49;17.33;;;9.52;;
75696;SDS011;64312;44.738;20.612;2023-02-08T06:17:14;16.05;;;8.77;;
75696;SDS011;64312;44.738;20.612;2023-02-08T06:19:40;16.23;;;8.90;;
75696;SDS011;64312;44.738;20.612;2023-02-08T06:22:05;18.05;;;7.65;;
75696;SDS011;64312;44.738;20.612;2023-02-08T06:24:31;20.52;;;9.48;;
75696;SDS011;64312;44.738;20.612;2023-02-08T06:26:57;17.77;;;8.80;;
75696;SDS011;64312;44.738;20.612;2023-02-08T06:29:22;19.05;;;9.20;;
75696;SDS011;64312;44.738;20.612;2023-02-08T06:31:48;20.05;;;10.02;;
75696;SDS011;64312;44.738;20.612;2023-02-08T06:34:13;24.02;;;10.90;;
75696;SDS011;64312;44.738;20.612;2023-02-08T06:36:39;25.77;;;11.73;;
75696;SDS011;64312;44.738;20.612;2023-02-08T06:39:05;21.60;;;9.85;;
75696;SDS011;64312;44.738;20.612;2023-02-08T06:41:31;20.05;;;9.52;;
75696;SDS011;64312;44.738;20.612;2023-02-08T06:43:56;20.45;;;11.65;;
75696;SDS011;64312;44.738;20.612;2023-02-08T06:46:24;26.90;;;10.70;;
75696;SDS011;64312;44.738;20.612;2023-02-08T06:48:50;26.45;;;11.55;;
75696;SDS011;64312;44.738;20.612;2023-02-08T06:51:15;24.55;;;12.32;;
75696;SDS011;64312;44.738;20.612;2023-02-08T06:53:41;21.05;;;10.65;;
75696;SDS011;64312;44.738;20.612;2023-02-08T06:56:07;19.75;;;11.35;;
75696;SDS011;64312;44.738;20.612;2023-02-08T06:58:33;24.80;;;11.35;;
75696;SDS011;64312;44.738;20.612;2023-02-08T07:00:58;20.95;;;10.68;;
75696;SDS011;64312;44.738;20.612;2023-02-08T07:03:24;19.02;;;9.77;;
75696;SDS011;64312;44.738;20.612;2023-02-08T07:05:49;24.92;;;12.07;;
75696;SDS011;64312;44.738;20.612;2023-02-08T07:08:15;21.70;;;11.18;;
75696;SDS011;64312;44.738;20.612;2023-02-08T07:10:44;26.75;;;11.95;;
75696;SDS011;64312;44.738;20.612;2023-02-08T07:13:10;20.25;;;11.18;;
75696;SDS011;64312;44.738;20.612;2023-02-08T07:15:36;21.60;;;11.35;;
75696;SDS011;64312;44.738;20.612;2023-02-08T07:18:02;22.10;;;9.95;;
75696;SDS011;64312;44.738;20.612;2023-02-08T07:20:28;25.70;;;12.32;;
75696;SDS011;64312;44.738;20.612;2023-02-08T07:22:53;63.05;;;24.65;;
75696;SDS011;64312;44.738;20.612;2023-02-08T07:25:19;43.63;;;19.00;;
75696;SDS011;64312;44.738;20.612;2023-02-08T07:27:45;56.40;;;22.92;;
75696;SDS011;64312;44.738;20.612;2023-02-08T07:30:11;53.10;;;22.27;;
75696;SDS011;64312;44.738;20.612;2023-02-08T07:32:37;36.25;;;16.95;;
75696;SDS011;64312;44.738;20.612;2023-02-08T07:35:03;29.23;;;15.60;;
75696;SDS011;64312;44.738;20.612;2023-02-08T07:37:30;31.70;;;15.20;;
75696;SDS011;64312;44.738;20.612;2023-02-08T07:39:57;26.80;;;14.07;;
75696;SDS011;64312;44.738;20.612;2023-02-08T07:42:23;27.42;;;14.35;;
75696;SDS011;64312;44.738;20.612;2023-02-08T07:45:01;32.67;;;16.20;;
75696;SDS011;64312;44.738;20.612;2023-02-08T07:47:28;29.65;;;14.73;;
75696;SDS011;64312;44.738;20.612;2023-02-08T07:49:54;31.38;;;14.68;;
75696;SDS011;64312;44.738;20.612;2023-02-08T07:52:20;26.77;;;12.95;;
75696;SDS011;64312;44.738;20.612;2023-02-08T07:54:45;31.33;;;15.27;;
75696;SDS011;64312;44.738;20.612;2023-02-08T07:57:11;33.83;;;13.00;;
75696;SDS011;64312;44.738;20.612;2023-02-08T07:59:37;24.77;;;12.18;;
75696;SDS011;64312;44.738;20.612;2023-02-08T08:02:03;27.17;;;12.05;;
75696;SDS011;64312;44.738;20.612;2023-02-08T08:04:28;22.17;;;11.65;;
75696;SDS011;64312;44.738;20.612;2023-02-08T08:06:54;25.20;;;12.38;;
75696;SDS011;64312;44.738;20.612;2023-02-08T08:09:20;21.90;;;10.35;;
75696;SDS011;64312;44.738;20.612;2023-02-08T08:11:45;22.52;;;11.90;;
75696;SDS011;64312;44.738;20.612;2023-02-08T08:14:11;21.63;;;10.93;;
75696;SDS011;64312;44.738;20.612;2023-02-08T08:16:37;22.20;;;11.43;;
75696;SDS011;64312;44.738;20.612;2023-02-08T08:19:03;27.45;;;13.55;;
75696;SDS011;64312;44.738;20.612;2023-02-08T08:21:28;21.55;;;11.93;;
75696;SDS011;64312;44.738;20.612;2023-02-08T08:23:54;26.52;;;13.02;;
75696;SDS011;64312;44.738;20.612;2023-02-08T08:26:20;24.00;;;11.15;;
75696;SDS011;64312;44.738;20.612;2023-02-08T08:28:45;21.83;;;10.80;;
75696;SDS011;64312;44.738;20.612;2023-02-08T08:31:15;20.08;;;10.65;;
75696;SDS011;64312;44.738;20.612;2023-02-08T08:33:43;24.00;;;9.35;;
75696;SDS011;64312;44.738;20.612;2023-02-08T08:36:09;24.00;;;10.48;;
75696;SDS011;64312;44.738;20.612;2023-02-08T08:38:35;26.77;;;10.73;;
75696;SDS011;64312;44.738;20.612;2023-02-08T08:41:10;18.95;;;9.48;;
75696;SDS011;64312;44.738;20.612;2023-02-08T08:43:40;19.60;;;9.68;;
75696;SDS011;64312;44.738;20.612;2023-02-08T08:46:06;18.58;;;9.55;;
75696;SDS011;64312;44.738;20.612;2023-02-08T08:48:33;18.13;;;9.32;;
75696;SDS011;64312;44.738;20.612;2023-02-08T08:51:00;18.02;;;9.35;;
75696;SDS011;64312;44.738;20.612;2023-02-08T08:53:26;11.45;;;7.07;;
75696;SDS011;64312;44.738;20.612;2023-02-08T08:55:51;16.35;;;7.93;;
75696;SDS011;64312;44.738;20.612;2023-02-08T08:58:17;18.00;;;8.02;;
75696;SDS011;64312;44.738;20.612;2023-02-08T09:00:43;19.67;;;11.20;;
75696;SDS011;64312;44.738;20.612;2023-02-08T09:03:08;21.85;;;10.70;;
75696;SDS011;64312;44.738;20.612;2023-02-08T09:05:34;24.48;;;11.10;;
75696;SDS011;64312;44.738;20.612;2023-02-08T09:08:00;19.98;;;11.50;;
75696;SDS011;64312;44.738;20.612;2023-02-08T09:10:27;21.77;;;9.88;;
75696;SDS011;64312;44.738;20.612;2023-02-08T09:12:54;24.50;;;11.82;;
75696;SDS011;64312;44.738;20.612;2023-02-08T09:15:20;18.42;;;10.77;;
75696;SDS011;64312;44.738;20.612;2023-02-08T09:17:45;21.85;;;10.63;;
75696;SDS011;64312;44.738;20.612;2023-02-08T09:20:11;18.92;;;8.93;;
75696;SDS011;64312;44.738;20.612;2023-02-08T09:22:37;19.85;;;8.88;;
75696;SDS011;64312;44.738;20.612;2023-02-08T09:25:02;16.55;;;8.70;;
75696;SDS011;64312;44.738;20.612;2023-02-08T09:27:28;17.70;;;8.82;;
75696;SDS011;64312;44.738;20.612;2023-02-08T09:29:54;22.80;;;9.90;;
75696;SDS011;64312;44.738;20.612;2023-02-08T09:32:20;16.83;;;9.07;;
75696;SDS011;64312;44.738;20.612;2023-02-08T09:34:47;18.35;;;8.48;;
75696;SDS011;64312;44.738;20.612;2023-02-08T09:37:12;17.40;;;9.23;;
75696;SDS011;64312;44.738;20.612;2023-02-08T09:39:41;18.98;;;9.93;;
75696;SDS011;64312;44.738;20.612;2023-02-08T09:47:37;18.98;;;9.48;;
75696;SDS011;64312;44.738;20.612;2023-02-08T09:50:09;22.58;;;10.82;;
75696;SDS011;64312;44.738;20.612;2023-02-08T09:52:39;23.42;;;11.20;;
75696;SDS011;64312;44.738;20.612;2023-02-08T09:55:51;21.45;;;12.15;;
75696;SDS011;64312;44.738;20.612;2023-02-08T09:57:58;22.02;;;11.52;;
75696;SDS011;64312;44.738;20.612;2023-02-08T10:00:30;21.65;;;12.00;;
75696;SDS011;64312;44.738;20.612;2023-02-08T10:03:01;26.52;;;11.98;;
75696;SDS011;64312;44.738;20.612;2023-02-08T10:05:28;27.30;;;13.30;;
75696;SDS011;64312;44.738;20.612;2023-02-08T10:07:55;22.80;;;12.23;;
75696;SDS011;64312;44.738;20.612;2023-02-08T10:16:07;26.00;;;10.80;;
75696;SDS011;64312;44.738;20.612;2023-02-08T10:21:33;18.02;;;8.85;;
75696;SDS011;64312;44.738;20.612;2023-02-08T10:27:00;25.58;;;12.90;;
75696;SDS011;64312;44.738;20.612;2023-02-08T10:35:01;24.70;;;12.00;;
75696;SDS011;64312;44.738;20.612;2023-02-08T10:37:34;21.83;;;11.85;;
75696;SDS011;64312;44.738;20.612;2023-02-08T10:43:02;21.45;;;9.52;;
75696;SDS011;64312;44.738;20.612;2023-02-08T10:45:44;21.70;;;9.57;;
75696;SDS011;64312;44.738;20.612;2023-02-08T10:50:59;20.35;;;9.30;;
75696;SDS011;64312;44.738;20.612;2023-02-08T10:53:25;19.48;;;9.98;;
75696;SDS011;64312;44.738;20.612;2023-02-08T10:55:51;17.23;;;8.27;;
75696;SDS011;64312;44.738;20.612;2023-02-08T10:58:21;22.70;;;11.40;;
75696;SDS011;64312;44.738;20.612;2023-02-08T11:00:50;19.92;;;10.48;;
75696;SDS011;64312;44.738;20.612;2023-02-08T11:03:17;21.67;;;9.95;;
75696;SDS011;64312;44.738;20.612;2023-02-08T11:05:47;22.05;;;11.05;;
75696;SDS011;64312;44.738;20.612;2023-02-08T11:08:14;19.63;;;10.90;;
75696;SDS011;64312;44.738;20.612;2023-02-08T11:13:34;22.95;;;11.63;;
75696;SDS011;64312;44.738;20.612;2023-02-08T11:16:03;26.92;;;12.48;;
75696;SDS011;64312;44.738;20.612;2023-02-08T11:18:32;18.08;;;9.15;;
75696;SDS011;64312;44.738;20.612;2023-02-08T11:21:01;16.77;;;10.07;;
75696;SDS011;64312;44.738;20.612;2023-02-08T11:23:30;20.48;;;9.52;;
75696;SDS011;64312;44.738;20.612;2023-02-08T11:26:18;20.63;;;9.93;;
75696;SDS011;64312;44.738;20.612;2023-02-08T11:31:37;21.58;;;11.10;;
75696;SDS011;64312;44.738;20.612;2023-02-08T11:34:05;24.67;;;11.55;;
75696;SDS011;64312;44.738;20.612;2023-02-08T11:36:36;16.38;;;9.82;;
75696;SDS011;64312;44.738;20.612;2023-02-08T11:39:15;23.23;;;11.43;;
75696;SDS011;64312;44.738;20.612;2023-02-08T11:42:02;18.08;;;9.15;;
75696;SDS011;64312;44.738;20.612;2023-02-08T11:46:54;14.73;;;8.43;;
75696;SDS011;64312;44.738;20.612;2023-02-08T11:49:26;13.10;;;7.97;;
75696;SDS011;64312;44.738;20.612;2023-02-08T11:52:05;18.90;;;8.85;;
75696;SDS011;64312;44.738;20.612;2023-02-08T11:54:42;15.10;;;8.90;;
75696;SDS011;64312;44.738;20.612;2023-02-08T11:57:16;25.77;;;12.43;;
75696;SDS011;64312;44.738;20.612;2023-02-08T11:59:48;24.63;;;11.68;;
75696;SDS011;64312;44.738;20.612;2023-02-08T12:02:35;21.83;;;11.63;;
75696;SDS011;64312;44.738;20.612;2023-02-08T12:05:03;23.88;;;10.80;;
75696;SDS011;64312;44.738;20.612;2023-02-08T12:13:02;16.80;;;8.95;;
75696;SDS011;64312;44.738;20.612;2023-02-08T12:18:33;18.88;;;8.48;;
75696;SDS011;64312;44.738;20.612;2023-02-08T12:21:20;17.73;;;8.60;;
75696;SDS011;64312;44.738;20.612;2023-02-08T12:24:14;19.63;;;8.88;;
75696;SDS011;64312;44.738;20.612;2023-02-08T12:38:03;29.52;;;12.90;;
75696;SDS011;64312;44.738;20.612;2023-02-08T12:41:09;28.88;;;13.85;;
75696;SDS011;64312;44.738;20.612;2023-02-08T12:47:02;26.15;;;14.55;;
75696;SDS011;64312;44.738;20.612;2023-02-08T12:49:45;28.48;;;13.70;;
75696;SDS011;64312;44.738;20.612;2023-02-08T12:55:43;28.55;;;11.70;;
75696;SDS011;64312;44.738;20.612;2023-02-08T12:57:54;19.65;;;10.50;;
75696;SDS011;64312;44.738;20.612;2023-02-08T13:00:27;18.00;;;10.02;;
75696;SDS011;64312;44.738;20.612;2023-02-08T13:03:19;19.63;;;11.07;;
75696;SDS011;64312;44.738;20.612;2023-02-08T13:06:03;18.75;;;9.95;;
75696;SDS011;64312;44.738;20.612;2023-02-08T13:08:42;19.27;;;10.77;;
75696;SDS011;64312;44.738;20.612;2023-02-08T13:14:10;19.20;;;10.02;;
75696;SDS011;64312;44.738;20.612;2023-02-08T13:16:48;17.88;;;9.43;;
75696;SDS011;64312;44.738;20.612;2023-02-08T13:21:48;18.67;;;9.32;;
75696;SDS011;64312;44.738;20.612;2023-02-08T13:27:08;19.00;;;10.80;;
75696;SDS011;64312;44.738;20.612;2023-02-08T13:29:39;20.27;;;10.00;;
75696;SDS011;64312;44.738;20.612;2023-02-08T13:32:05;15.52;;;8.45;;
75696;SDS011;64312;44.738;20.612;2023-02-08T13:34:37;20.50;;;9.77;;
75696;SDS011;64312;44.738;20.612;2023-02-08T13:37:23;18.92;;;10.20;;
75696;SDS011;64312;44.738;20.612;2023-02-08T13:42:59;16.77;;;8.32;;
75696;SDS011;64312;44.738;20.612;2023-02-08T13:45:32;17.33;;;9.35;;
75696;SDS011;64312;44.738;20.612;2023-02-08T13:48:02;17.83;;;9.18;;
75696;SDS011;64312;44.738;20.612;2023-02-08T13:52:59;14.85;;;7.22;;
75696;SDS011;64312;44.738;20.612;2023-02-08T14:01:00;18.02;;;8.55;;
75696;SDS011;64312;44.738;20.612;2023-02-08T14:03:31;14.38;;;8.95;;
75696;SDS011;64312;44.738;20.612;2023-02-08T14:05:58;14.57;;;8.10;;
75696;SDS011;64312;44.738;20.612;2023-02-08T14:08:39;18.50;;;9.65;;
75696;SDS011;64312;44.738;20.612;2023-02-08T14:13:45;15.68;;;8.75;;
75696;SDS011;64312;44.738;20.612;2023-02-08T14:16:27;18.90;;;9.80;;
75696;SDS011;64312;44.738;20.612;2023-02-08T14:18:59;14.07;;;8.50;;
75696;SDS011;64312;44.738;20.612;2023-02-08T14:21:36;19.25;;;8.90;;
75696;SDS011;64312;44.738;20.612;2023-02-08T14:24:26;15.57;;;8.52;;
75696;SDS011;64312;44.738;20.612;2023-02-08T14:32:29;12.82;;;7.18;;
75696;SDS011;64312;44.738;20.612;2023-02-08T14:35:07;12.90;;;7.00;;
75696;SDS011;64312;44.738;20.612;2023-02-08T14:37:45;12.55;;;6.40;;
75696;SDS011;64312;44.738;20.612;2023-02-08T14:47:56;12.05;;;5.75;;
75696;SDS011;64312;44.738;20.612;2023-02-08T14:50:24;10.38;;;5.82;;
75696;SDS011;64312;44.738;20.612;2023-02-08T14:53:13;13.38;;;5.43;;
75696;SDS011;64312;44.738;20.612;2023-02-08T14:55:51;14.18;;;6.50;;
75696;SDS011;64312;44.738;20.612;2023-02-08T14:58:26;12.20;;;6.57;;
75696;SDS011;64312;44.738;20.612;2023-02-08T15:00:55;16.60;;;6.72;;
75696;SDS011;64312;44.738;20.612;2023-02-08T15:03:24;10.45;;;5.97;;
75696;SDS011;64312;44.738;20.612;2023-02-08T15:08:31;11.45;;;6.20;;
75696;SDS011;64312;44.738;20.612;2023-02-08T15:10:57;9.90;;;6.30;;
75696;SDS011;64312;44.738;20.612;2023-02-08T15:13:23;11.63;;;5.90;;
75696;SDS011;64312;44.738;20.612;2023-02-08T15:15:49;14.73;;;7.10;;
75696;SDS011;64312;44.738;20.612;2023-02-08T15:18:27;10.88;;;6.35;;
75696;SDS011;64312;44.738;20.612;2023-02-08T15:21:13;13.98;;;7.22;;
75696;SDS011;64312;44.738;20.612;2023-02-08T15:23:42;11.52;;;7.03;;
75696;SDS011;64312;44.738;20.612;2023-02-08T15:26:24;9.98;;;6.72;;
75696;SDS011;64312;44.738;20.612;2023-02-08T15:28:51;16.02;;;8.75;;
75696;SDS011;64312;44.738;20.612;2023-02-08T15:31:22;9.25;;;6.53;;
75696;SDS011;64312;44.738;20.612;2023-02-08T15:33:56;15.80;;;8.63;;
75696;SDS011;64312;44.738;20.612;2023-02-08T15:36:30;16.17;;;8.38;;
75696;SDS011;64312;44.738;20.612;2023-02-08T15:38:59;14.27;;;7.53;;
75696;SDS011;64312;44.738;20.612;2023-02-08T15:41:28;12.95;;;7.00;;
75696;SDS011;64312;44.738;20.612;2023-02-08T15:47:19;13.05;;;6.43;;
75696;SDS011;64312;44.738;20.612;2023-02-08T15:49:47;14.25;;;7.07;;
75696;SDS011;64312;44.738;20.612;2023-02-08T15:52:21;10.00;;;5.63;;
75696;SDS011;64312;44.738;20.612;2023-02-08T15:54:50;11.80;;;6.32;;
75696;SDS011;64312;44.738;20.612;2023-02-08T16:00:04;9.00;;;5.50;;
75696;SDS011;64312;44.738;20.612;2023-02-08T16:02:39;8.95;;;5.32;;
75696;SDS011;64312;44.738;20.612;2023-02-08T16:05:17;8.40;;;4.90;;
75696;SDS011;64312;44.738;20.612;2023-02-08T16:07:46;10.70;;;5.53;;
75696;SDS011;64312;44.738;20.612;2023-02-08T16:10:46;10.10;;;6.22;;
75696;SDS011;64312;44.738;20.612;2023-02-08T16:13:17;10.18;;;5.88;;
75696;SDS011;64312;44.738;20.612;2023-02-08T16:15:47;9.13;;;5.15;;
75696;SDS011;64312;44.738;20.612;2023-02-08T16:23:51;10.77;;;5.60;;
75696;SDS011;64312;44.738;20.612;2023-02-08T16:26:42;11.60;;;6.40;;
75696;SDS011;64312;44.738;20.612;2023-02-08T16:29:30;16.95;;;6.95;;
75696;SDS011;64312;44.738;20.612;2023-02-08T16:32:03;17.52;;;8.25;;
75696;SDS011;64312;44.738;20.612;2023-02-08T16:34:42;18.48;;;8.45;;
75696;SDS011;64312;44.738;20.612;2023-02-08T16:37:28;19.27;;;9.85;;
75696;SDS011;64312;44.738;20.612;2023-02-08T16:39:57;17.88;;;8.88;;
75696;SDS011;64312;44.738;20.612;2023-02-08T16:47:24;17.23;;;7.45;;
75696;SDS011;64312;44.738;20.612;2023-02-08T16:49:52;16.85;;;8.35;;
75696;SDS011;64312;44.738;20.612;2023-02-08T16:52:17;12.98;;;7.03;;
75696;SDS011;64312;44.738;20.612;2023-02-08T16:54:43;15.68;;;7.18;;
75696;SDS011;64312;44.738;20.612;2023-02-08T16:57:09;17.17;;;8.20;;
75696;SDS011;64312;44.738;20.612;2023-02-08T16:59:35;14.82;;;8.00;;
75696;SDS011;64312;44.738;20.612;2023-02-08T17:02:01;13.68;;;7.57;;
75696;SDS011;64312;44.738;20.612;2023-02-08T17:04:26;16.65;;;8.85;;
75696;SDS011;64312;44.738;20.612;2023-02-08T17:06:52;13.95;;;8.13;;
75696;SDS011;64312;44.738;20.612;2023-02-08T17:09:18;15.43;;;8.00;;
75696;SDS011;64312;44.738;20.612;2023-02-08T17:11:43;13.23;;;7.72;;
75696;SDS011;64312;44.738;20.612;2023-02-08T17:14:09;13.30;;;7.95;;
75696;SDS011;64312;44.738;20.612;2023-02-08T17:16:36;15.85;;;8.20;;
75696;SDS011;64312;44.738;20.612;2023-02-08T17:19:04;14.75;;;8.00;;
75696;SDS011;64312;44.738;20.612;2023-02-08T17:21:29;17.70;;;8.43;;